createdAt,value
2022-10-17T00:01:50.915Z,3.20
2022-10-17T00:05:13.197Z,2.80
2022-10-17T00:08:36.883Z,3.97
2022-10-17T00:11:58.819Z,2.80
2022-10-17T00:15:22.317Z,3.40
2022-10-17T00:18:44.322Z,3.17
2022-10-17T00:22:06.224Z,4.88
2022-10-17T00:25:29.669Z,3.90
2022-10-17T00:28:53.281Z,2.90
2022-10-17T00:32:15.413Z,2.53
2022-10-17T00:35:37.416Z,2.80
2022-10-17T00:39:00.703Z,2.50
2022-10-17T00:42:25.293Z,3.17
2022-10-17T00:45:47.453Z,3.70
2022-10-17T00:49:11.473Z,2.50
2022-10-17T00:52:34.029Z,3.22
2022-10-17T00:55:56.084Z,4.30
2022-10-17T00:59:22.235Z,2.17
2022-10-17T01:02:44.960Z,2.00
2022-10-17T01:06:07.108Z,2.00
2022-10-17T01:09:29.222Z,2.47
2022-10-17T01:13:04.151Z,2.70
2022-10-17T01:16:39.861Z,1.92
2022-10-17T01:20:42.090Z,2.33
2022-10-17T01:24:48.396Z,3.60
2022-10-17T01:28:28.520Z,2.75
2022-10-17T01:31:59.557Z,2.67
2022-10-17T01:35:27.198Z,3.33
2022-10-17T01:38:53.382Z,2.55
2022-10-17T01:42:20.338Z,3.22
2022-10-17T01:45:48.484Z,2.75
2022-10-17T01:49:14.431Z,2.95
2022-10-17T01:52:42.861Z,2.72
2022-10-17T01:56:09.023Z,4.25
2022-10-17T01:59:36.813Z,1.85
2022-10-17T02:03:01.559Z,2.75
2022-10-17T02:06:25.189Z,2.42
2022-10-17T02:09:47.250Z,1.98
2022-10-17T02:13:17.194Z,3.05
2022-10-17T02:16:43.652Z,2.30
2022-10-17T02:20:17.424Z,2.58
2022-10-17T02:23:48.515Z,2.90
2022-10-17T02:27:16.094Z,2.78
2022-10-17T02:30:44.035Z,2.50
2022-10-17T02:34:09.371Z,2.55
2022-10-17T02:37:33.567Z,2.85
2022-10-17T02:40:57.933Z,4.50
2022-10-17T02:44:21.548Z,2.60
2022-10-17T02:47:51.960Z,2.97
2022-10-17T02:51:22.085Z,3.95
2022-10-17T02:54:49.002Z,3.08
2022-10-17T02:58:17.933Z,2.22
2022-10-17T03:01:39.890Z,3.00
2022-10-17T03:05:01.641Z,1.55
2022-10-17T03:08:24.305Z,2.10
2022-10-17T03:11:46.710Z,1.88
2022-10-17T03:15:11.440Z,2.13
2022-10-17T03:18:33.733Z,2.17
2022-10-17T03:21:56.670Z,2.05
2022-10-17T03:25:18.458Z,2.22
2022-10-17T03:28:40.338Z,3.30
2022-10-17T03:32:03.360Z,3.15
2022-10-17T03:35:25.293Z,3.55
2022-10-17T03:38:47.967Z,3.22
2022-10-17T03:42:10.101Z,4.30
2022-10-17T03:45:32.005Z,4.00
2022-10-17T03:48:55.299Z,2.28
2022-10-17T03:52:17.371Z,4.88
2022-10-17T03:55:40.236Z,3.20
2022-10-17T03:59:01.847Z,3.42
2022-10-17T04:02:23.853Z,3.25
2022-10-17T04:05:47.134Z,2.45
2022-10-17T04:09:09.380Z,3.95
2022-10-17T04:12:31.428Z,3.10
2022-10-17T04:15:57.834Z,6.65
2022-10-17T04:19:19.604Z,4.20
2022-10-17T04:22:43.095Z,3.28
2022-10-17T04:26:06.151Z,2.92
2022-10-17T04:29:28.746Z,3.75
2022-10-17T04:32:51.072Z,3.25
2022-10-17T04:36:15.130Z,1.73
2022-10-17T04:39:38.366Z,1.77
2022-10-17T04:42:59.971Z,2.28
2022-10-17T04:46:22.015Z,3.60
2022-10-17T04:49:43.657Z,2.42
2022-10-17T04:53:08.062Z,2.30
2022-10-17T04:56:31.402Z,2.40
2022-10-17T04:59:53.020Z,2.05
2022-10-17T05:03:14.956Z,2.40
2022-10-17T05:06:37.849Z,2.08
2022-10-17T05:10:00.002Z,3.53
2022-10-17T05:13:23.276Z,2.47
2022-10-17T05:16:45.633Z,1.73
2022-10-17T05:20:09.217Z,2.95
2022-10-17T05:23:31.288Z,2.35
2022-10-17T05:26:52.896Z,2.00
2022-10-17T05:30:16.102Z,1.70
2022-10-17T05:37:07.889Z,3.33
2022-10-17T05:40:30.274Z,2.22
2022-10-17T05:43:52.033Z,2.70
2022-10-17T05:47:15.478Z,1.83
2022-10-17T05:50:37.837Z,1.67
2022-10-17T05:53:59.948Z,2.33
2022-10-17T06:02:10.402Z,2.47
2022-10-17T06:05:36.326Z,3.35
2022-10-17T06:08:58.179Z,2.50
2022-10-17T06:12:23.080Z,2.70
2022-10-17T06:15:45.375Z,2.50
2022-10-17T06:19:07.291Z,2.50
2022-10-17T06:22:31.047Z,3.33
2022-10-17T06:25:53.569Z,4.55
2022-10-17T06:34:03.937Z,3.33
2022-10-17T06:37:25.797Z,3.10
2022-10-17T06:40:49.043Z,4.40
2022-10-17T06:44:11.433Z,4.47
2022-10-17T06:47:33.483Z,2.60
2022-10-17T06:55:55.442Z,5.20
2022-10-17T06:59:17.558Z,3.17
2022-10-17T07:02:39.403Z,2.72
2022-10-17T07:06:01.726Z,2.63
2022-10-17T07:09:24.467Z,2.67
2022-10-17T07:12:48.072Z,3.00
2022-10-17T07:16:13.250Z,3.60
2022-10-17T07:19:35.176Z,4.32
2022-10-17T07:22:59.210Z,2.00
2022-10-17T07:26:21.764Z,3.10
2022-10-17T07:29:45.339Z,2.67
2022-10-17T07:33:07.256Z,2.58
2022-10-17T07:36:29.014Z,2.15
2022-10-17T07:39:50.888Z,2.22
2022-10-17T07:43:12.942Z,2.63
2022-10-17T07:47:03.868Z,2.35
2022-10-17T07:50:27.646Z,2.08
2022-10-17T07:53:49.858Z,2.05
2022-10-17T07:57:11.908Z,2.95
2022-10-17T08:00:34.159Z,2.63
2022-10-17T08:03:56.113Z,1.90
2022-10-17T08:07:23.257Z,2.20
2022-10-17T08:10:47.280Z,2.67
2022-10-17T08:14:09.231Z,2.47
2022-10-17T08:17:31.102Z,1.95
2022-10-17T08:21:14.535Z,2.00
2022-10-17T08:24:38.088Z,2.42
2022-10-17T08:28:00.404Z,1.70
2022-10-17T08:31:23.233Z,1.55
2022-10-17T08:34:45.128Z,2.92
2022-10-17T08:38:10.999Z,2.10
2022-10-17T08:42:04.462Z,2.13
2022-10-17T08:45:34.073Z,2.50
2022-10-17T08:48:55.906Z,1.58
2022-10-17T08:52:27.671Z,1.80
2022-10-17T08:55:50.799Z,1.70
2022-10-17T08:59:16.074Z,1.80
2022-10-17T09:02:48.962Z,2.00
2022-10-17T09:06:19.154Z,5.18
2022-10-17T09:09:47.617Z,7.80
2022-10-17T09:17:39.550Z,5.05
2022-10-17T09:21:06.235Z,3.95
2022-10-17T09:24:38.673Z,3.47
2022-10-17T09:28:23.383Z,4.32
2022-10-17T09:31:59.027Z,3.60
2022-10-17T09:35:24.282Z,4.15
2022-10-17T09:38:49.872Z,5.18
2022-10-17T09:42:15.874Z,5.45
2022-10-17T09:45:47.115Z,5.15
2022-10-17T09:49:18.600Z,5.57
2022-10-17T09:52:41.477Z,5.57
2022-10-17T09:56:10.905Z,1.75
2022-10-17T09:59:35.833Z,3.92
2022-10-17T10:03:12.394Z,3.20
2022-10-17T10:07:35.210Z,3.83
2022-10-17T10:11:17.503Z,4.88
2022-10-17T10:14:40.944Z,4.50
2022-10-17T10:18:03.399Z,5.90
2022-10-17T10:21:26.420Z,5.60
2022-10-17T10:25:07.820Z,3.47
2022-10-17T10:28:32.643Z,2.95
2022-10-17T10:32:25.075Z,1.70
2022-10-17T10:35:55.700Z,2.47
2022-10-17T10:39:29.571Z,2.28
2022-10-17T10:42:54.129Z,2.85
2022-10-17T10:46:21.150Z,3.15
2022-10-17T10:49:45.601Z,2.40
2022-10-17T10:53:26.112Z,2.28
2022-10-17T10:56:52.679Z,2.00
2022-10-17T11:00:19.490Z,3.70
2022-10-17T11:03:50.254Z,4.15
2022-10-17T11:07:17.809Z,3.83
2022-10-17T11:10:46.257Z,5.30
2022-10-17T11:14:15.762Z,5.80
2022-10-17T11:17:44.533Z,6.68
2022-10-17T11:21:14.461Z,4.63
2022-10-17T11:24:43.833Z,6.30
2022-10-17T11:28:13.646Z,3.80
2022-10-17T11:31:39.676Z,6.97
2022-10-17T11:35:06.417Z,6.70
2022-10-17T11:38:41.967Z,7.80
2022-10-17T11:42:08.829Z,6.68
2022-10-17T11:45:38.233Z,4.25
2022-10-17T11:49:08.197Z,4.15
2022-10-17T11:52:56.511Z,4.70
2022-10-17T11:59:59.507Z,4.60
2022-10-17T12:03:33.301Z,3.38
2022-10-17T12:07:10.974Z,3.08
2022-10-17T12:10:46.576Z,2.78
2022-10-17T12:14:38.016Z,2.03
2022-10-17T12:18:03.159Z,1.95
2022-10-17T12:21:29.677Z,2.35
2022-10-17T12:25:02.021Z,2.47
2022-10-17T12:28:29.524Z,2.78
2022-10-17T12:31:51.356Z,2.15
2022-10-17T12:35:22.218Z,3.20
2022-10-17T12:38:47.833Z,1.95
2022-10-17T12:42:34.909Z,2.80
2022-10-17T12:45:57.848Z,3.00
2022-10-17T12:49:42.388Z,2.13
2022-10-17T12:53:09.013Z,2.65
2022-10-17T12:56:42.974Z,2.33
2022-10-17T13:00:15.460Z,1.55
2022-10-17T13:03:44.774Z,2.08
2022-10-17T13:07:06.735Z,2.30
2022-10-17T13:10:36.554Z,3.03
2022-10-17T13:14:00.983Z,2.75
2022-10-17T13:17:25.778Z,1.90
2022-10-17T13:20:56.448Z,2.83
2022-10-17T13:24:22.916Z,3.25
2022-10-17T13:27:46.811Z,2.83
2022-10-17T13:31:21.752Z,2.63
2022-10-17T13:34:43.801Z,2.60
2022-10-17T13:38:08.230Z,2.35
2022-10-17T13:41:36.203Z,8.93
2022-10-17T13:45:00.793Z,2.58
2022-10-17T13:48:25.123Z,3.85
2022-10-17T13:51:49.014Z,3.47
2022-10-17T13:55:17.485Z,2.95
2022-10-17T14:02:06.132Z,2.83
2022-10-17T14:05:28.148Z,4.63
2022-10-17T14:08:57.810Z,1.77
2022-10-17T14:12:22.004Z,1.90
2022-10-17T14:15:47.223Z,2.63
2022-10-17T14:19:28.617Z,2.40
2022-10-17T14:23:04.535Z,4.07
2022-10-17T14:26:37.161Z,5.13
2022-10-17T14:30:02.877Z,5.13
2022-10-17T14:33:28.021Z,8.65
2022-10-17T14:36:53.448Z,4.97
2022-10-17T14:40:17.669Z,8.05
2022-10-17T14:43:39.816Z,5.85
2022-10-17T14:47:30.265Z,5.13
2022-10-17T14:51:09.985Z,2.17
2022-10-17T14:54:37.655Z,2.83
2022-10-17T14:57:59.792Z,3.45
2022-10-17T15:01:21.584Z,4.30
2022-10-17T15:04:43.508Z,3.30
2022-10-17T15:08:05.374Z,5.30
2022-10-17T15:11:29.572Z,5.78
2022-10-17T15:14:51.903Z,4.43
2022-10-17T15:18:14.919Z,3.80
2022-10-17T15:21:40.757Z,6.97
2022-10-17T15:25:05.906Z,8.00
2022-10-17T15:28:29.447Z,7.60
2022-10-17T15:31:51.611Z,5.63
2022-10-17T15:35:13.890Z,4.32
2022-10-17T15:38:35.893Z,10.43
2022-10-17T15:41:58.148Z,6.13
2022-10-17T15:45:22.828Z,4.85
2022-10-17T15:48:44.553Z,4.18
2022-10-17T15:52:06.883Z,5.75
2022-10-17T15:55:28.551Z,4.63
2022-10-17T15:58:51.153Z,5.55
2022-10-17T16:02:15.562Z,16.52
2022-10-17T16:05:37.164Z,10.35
2022-10-17T16:08:59.085Z,5.82
2022-10-17T16:12:31.283Z,6.70
2022-10-17T16:15:53.976Z,6.80
2022-10-17T16:19:17.804Z,12.57
2022-10-17T16:22:41.861Z,3.83
2022-10-17T16:26:03.809Z,3.22
2022-10-17T16:29:27.168Z,4.30
2022-10-17T16:32:49.980Z,4.43
2022-10-17T16:36:13.542Z,3.88
2022-10-17T16:39:35.737Z,3.13
2022-10-17T16:42:57.618Z,3.45
2022-10-17T16:46:20.380Z,3.10
2022-10-17T16:49:45.201Z,4.28
2022-10-17T16:53:09.116Z,4.93
2022-10-17T16:56:32.803Z,12.10
2022-10-17T16:59:55.123Z,4.35
2022-10-17T17:03:17.346Z,4.85
2022-10-17T17:06:39.466Z,4.22
2022-10-17T17:10:03.010Z,4.35
2022-10-17T17:13:25.328Z,2.70
2022-10-17T17:16:47.629Z,2.92
2022-10-17T17:20:10.007Z,2.75
2022-10-17T17:23:34.084Z,3.28
2022-10-17T17:26:58.779Z,4.07
2022-10-17T17:30:20.896Z,5.07
2022-10-17T17:33:43.900Z,4.38
2022-10-17T17:37:05.973Z,2.70
2022-10-17T17:40:27.753Z,2.95
2022-10-17T17:43:51.461Z,3.83
2022-10-17T17:47:13.528Z,2.90
2022-10-17T17:50:38.368Z,4.53
2022-10-17T17:54:00.318Z,3.75
2022-10-17T17:57:22.353Z,5.05
2022-10-17T18:00:45.827Z,5.57
2022-10-17T18:04:09.797Z,4.35
2022-10-17T18:07:31.701Z,4.50
2022-10-17T18:10:54.732Z,4.05
2022-10-17T18:14:19.187Z,3.90
2022-10-17T18:17:42.570Z,2.40
2022-10-17T18:21:04.795Z,2.38
2022-10-17T18:24:35.679Z,3.30
2022-10-17T18:27:57.872Z,3.00
2022-10-17T18:31:24.517Z,3.22
2022-10-17T18:34:48.080Z,2.25
2022-10-17T18:38:10.141Z,2.22
2022-10-17T18:41:32.252Z,2.08
2022-10-17T18:44:54.038Z,2.55
2022-10-17T18:48:16.120Z,2.60
2022-10-17T18:51:40.189Z,2.53
2022-10-17T18:55:02.018Z,2.55
2022-10-17T18:58:24.319Z,2.50
2022-10-17T19:01:46.735Z,1.70
2022-10-17T19:05:09.789Z,1.83
2022-10-17T19:08:33.428Z,2.30
2022-10-17T19:11:56.579Z,2.03
2022-10-17T19:15:21.247Z,1.75
2022-10-17T19:18:45.076Z,2.03
2022-10-17T19:22:07.085Z,1.75
2022-10-17T19:25:30.726Z,2.28
2022-10-17T19:28:54.139Z,1.48
2022-10-17T19:32:18.111Z,1.90
2022-10-17T19:35:42.831Z,1.88
2022-10-17T19:39:06.463Z,1.50
2022-10-17T19:42:31.620Z,2.42
2022-10-17T19:45:57.446Z,1.95
2022-10-17T19:49:19.733Z,2.20
2022-10-17T19:52:41.261Z,2.33
2022-10-17T19:56:03.245Z,2.33
2022-10-17T19:59:26.737Z,1.80
2022-10-17T20:02:48.723Z,1.80
2022-10-17T20:06:11.337Z,2.60
2022-10-17T20:09:33.573Z,2.30
2022-10-17T20:12:55.969Z,2.22
2022-10-17T20:16:21.776Z,1.60
2022-10-17T20:19:44.228Z,1.73
2022-10-17T20:23:06.571Z,2.00
2022-10-17T20:26:38.704Z,1.60
2022-10-17T20:30:02.084Z,1.20
2022-10-17T20:33:31.717Z,1.98
2022-10-17T20:36:53.771Z,2.05
2022-10-17T20:40:34.259Z,2.53
2022-10-17T20:43:57.216Z,1.60
2022-10-17T20:47:33.139Z,1.58
2022-10-17T20:51:08.393Z,2.88
2022-10-17T20:54:30.795Z,1.80
2022-10-17T20:57:54.502Z,2.45
2022-10-17T21:01:16.540Z,2.55
2022-10-17T21:04:46.473Z,2.10
2022-10-17T21:08:10.269Z,1.90
2022-10-17T21:11:32.820Z,1.55
2022-10-17T21:14:55.178Z,1.98
2022-10-17T21:18:17.231Z,1.90
2022-10-17T21:21:42.796Z,2.22
2022-10-17T21:25:06.671Z,2.47
2022-10-17T21:28:28.541Z,2.42
2022-10-17T21:31:50.534Z,2.33
2022-10-17T21:35:12.323Z,2.30
2022-10-17T21:38:36.588Z,1.70
2022-10-17T21:42:00.064Z,1.73
2022-10-17T21:45:25.846Z,1.80
2022-10-17T21:48:49.045Z,1.63
2022-10-17T21:52:11.188Z,1.88
2022-10-17T21:55:32.956Z,1.80
2022-10-17T21:58:57.672Z,1.88
2022-10-17T22:02:20.423Z,2.25
2022-10-17T22:05:43.689Z,1.70
2022-10-17T22:09:09.516Z,1.83
2022-10-17T22:12:32.481Z,1.77
2022-10-17T22:16:01.074Z,1.60
2022-10-17T22:19:25.360Z,2.25
2022-10-17T22:22:47.807Z,1.42
2022-10-17T22:26:18.964Z,1.42
2022-10-17T22:58:18.533Z,1.65
2022-10-17T23:10:33.534Z,2.15
2022-10-17T23:13:57.170Z,1.60
2022-10-17T23:17:19.276Z,1.50
2022-10-17T23:20:43.919Z,1.52
2022-10-17T23:24:06.209Z,2.17
2022-10-17T23:27:27.762Z,2.03
2022-10-17T23:30:50.980Z,1.88
2022-10-17T23:34:13.125Z,1.65
2022-10-17T23:37:35.625Z,1.95
2022-10-17T23:40:57.460Z,1.42
2022-10-17T23:44:19.372Z,1.48
2022-10-17T23:47:42.601Z,1.63
2022-10-17T23:51:04.584Z,1.50
2022-10-17T23:54:26.429Z,1.60
2022-10-17T23:57:50.878Z,1.30
